Shafter, Illinois
Current Conditions -  °F | °C
As of 12:35 PM on Thursday 30 Oct 2014 (Local Time) from KSLO Reporting Station
Broken Clouds Broken Clouds  
Wind Chill: 58°   Ceiling: 10000
Heat Index: 58°   Visibility: 10mi
Dew Point: 40°   Wind: 7mph
Humidity: 51%   Direction: 220°SW
Pressure: 30.12"   Gusts: NA
Location:  38.8752°N, 89.1076°W
Report Text: KSLO 301735Z AUTO 22006KT 10SM BKN100 14/04 A3012 RMK AO2 T01420043
Loading
Personal Weather Stations






























Interactive Weather Map
Tropical Storm Tracking
New forecast layout! Learn more

10-Day Weather Forecast

Advertisements
Track Severe Weather on mobile